UVA2 WIII-WIHH
Flight info
| Callsign | UVA2 |
|---|---|
| Flight time | 0h 11m |
| Altitude | 10000 |
| Route | UBNAV/N0287F090 DCT PAPAF DCT OBGEG DCT AL |
| Aircraft | B77W/H-SDE1E2E3FGHIJ2J3J4J5M1RWXY/LB1D1 |
Departure
| Time | 2026-04-15 11:11 |
|---|---|
| Airport | Soekarno-Hatta International Airport (WIII) |
Arrival
| Time | 2026-04-15 11:23 |
|---|---|
| Airport | Halim Perdanakusuma International Airport (WIHH) |
| Time | Latitude | Longitude | Altitude | Speed | Heading |
|---|---|---|---|---|---|
| 2026-04-15 10:58 | -6.13677 | 106.64477 | 43 ft | 0 kts | 159° |
| 2026-04-15 11:06 | -6.13688 | 106.64481 | 43 ft | 7 kts | 159° |
| 2026-04-15 11:06 | -6.13736 | 106.64545 | 43 ft | 12 kts | 79° |
| 2026-04-15 11:07 | -6.13714 | 106.64610 | 43 ft | 2 kts | 97° |
| 2026-04-15 11:07 | -6.13773 | 106.64660 | 43 ft | 16 kts | 153° |
| 2026-04-15 11:07 | -6.13863 | 106.64620 | 43 ft | 17 kts | 249° |
| 2026-04-15 11:07 | -6.13905 | 106.64512 | 43 ft | 17 kts | 248° |
| 2026-04-15 11:08 | -6.13945 | 106.64411 | 43 ft | 17 kts | 248° |
| 2026-04-15 11:08 | -6.13990 | 106.64304 | 43 ft | 17 kts | 242° |
| 2026-04-15 11:08 | -6.14092 | 106.64285 | 44 ft | 16 kts | 159° |
| 2026-04-15 11:08 | -6.14105 | 106.64290 | 44 ft | 1 kts | 158° |
| 2026-04-15 11:09 | -6.14135 | 106.64300 | 45 ft | 13 kts | 161° |
| 2026-04-15 11:09 | -6.14205 | 106.64366 | 46 ft | 14 kts | 114° |
| 2026-04-15 11:09 | -6.14211 | 106.64465 | 45 ft | 15 kts | 77° |
| 2026-04-15 11:09 | -6.14202 | 106.64493 | 45 ft | 1 kts | 68° |
| 2026-04-15 11:10 | -6.14201 | 106.64496 | 44 ft | 0 kts | 68° |
| 2026-04-15 11:10 | -6.14198 | 106.64503 | 44 ft | 9 kts | 68° |
| 2026-04-15 11:11 | -6.14063 | 106.64840 | 44 ft | 105 kts | 68° |
| 2026-04-15 11:11 | -6.13697 | 106.65760 | 96 ft | 190 kts | 67° |
| 2026-04-15 11:11 | -6.13219 | 106.67062 | 1108 ft | 182 kts | 60° |
| 2026-04-15 11:11 | -6.12660 | 106.68202 | 2236 ft | 195 kts | 58° |
| 2026-04-15 11:12 | -6.11981 | 106.69431 | 2325 ft | 234 kts | 58° |
| 2026-04-15 11:12 | -6.10978 | 106.70959 | 2362 ft | 283 kts | 55° |
| 2026-04-15 11:12 | -6.09906 | 106.72524 | 3075 ft | 301 kts | 56° |
| 2026-04-15 11:12 | -6.08737 | 106.74322 | 2573 ft | 302 kts | 59° |
| 2026-04-15 11:13 | -6.07855 | 106.76008 | 2457 ft | 270 kts | 64° |
| 2026-04-15 11:13 | -6.07102 | 106.77702 | 1997 ft | 266 kts | 66° |
| 2026-04-15 11:13 | -6.06409 | 106.79347 | 2136 ft | 252 kts | 66° |
| 2026-04-15 11:13 | -6.05761 | 106.80899 | 2428 ft | 253 kts | 67° |
| 2026-04-15 11:14 | -6.05097 | 106.82545 | 2486 ft | 248 kts | 70° |
| 2026-04-15 11:14 | -6.04602 | 106.84194 | 3065 ft | 250 kts | 76° |
| 2026-04-15 11:14 | -6.04223 | 106.85823 | 3371 ft | 256 kts | 76° |
| 2026-04-15 11:14 | -6.03785 | 106.87582 | 3513 ft | 259 kts | 76° |
| 2026-04-15 11:15 | -6.03348 | 106.89321 | 3682 ft | 256 kts | 76° |
| 2026-04-15 11:15 | -6.02970 | 106.90981 | 3789 ft | 256 kts | 78° |
| 2026-04-15 11:15 | -6.02769 | 106.92788 | 3901 ft | 255 kts | 91° |
| 2026-04-15 11:15 | -6.03063 | 106.94557 | 4076 ft | 260 kts | 108° |
| 2026-04-15 11:16 | -6.03974 | 106.96099 | 4147 ft | 258 kts | 138° |
| 2026-04-15 11:16 | -6.05429 | 106.97147 | 4211 ft | 258 kts | 154° |
| 2026-04-15 11:16 | -6.07053 | 106.97898 | 4455 ft | 264 kts | 156° |
| 2026-04-15 11:16 | -6.08766 | 106.98627 | 4673 ft | 269 kts | 157° |
| 2026-04-15 11:17 | -6.10377 | 106.99280 | 4558 ft | 269 kts | 157° |
| 2026-04-15 11:17 | -6.12101 | 106.99975 | 4434 ft | 263 kts | 158° |
| 2026-04-15 11:17 | -6.13760 | 107.00669 | 4182 ft | 260 kts | 155° |
| 2026-04-15 11:17 | -6.15403 | 107.01462 | 3533 ft | 261 kts | 149° |
| 2026-04-15 11:18 | -6.16892 | 107.02384 | 3206 ft | 244 kts | 147° |
| 2026-04-15 11:18 | -6.18280 | 107.03296 | 3268 ft | 234 kts | 147° |
| 2026-04-15 11:18 | -6.19681 | 107.04211 | 2960 ft | 250 kts | 149° |
| 2026-04-15 11:18 | -6.21330 | 107.04826 | 2551 ft | 254 kts | 175° |
| 2026-04-15 11:19 | -6.22966 | 107.04491 | 2316 ft | 235 kts | 214° |
| 2026-04-15 11:19 | -6.23827 | 107.03246 | 1928 ft | 210 kts | 262° |
| 2026-04-15 11:19 | -6.23777 | 107.01808 | 1492 ft | 202 kts | 287° |
| 2026-04-15 11:19 | -6.23147 | 107.00558 | 1340 ft | 207 kts | 303° |
| 2026-04-15 11:20 | -6.22379 | 106.99279 | 1009 ft | 210 kts | 291° |
| 2026-04-15 11:20 | -6.22284 | 106.97870 | 1650 ft | 206 kts | 263° |
| 2026-04-15 11:20 | -6.22734 | 106.96474 | 1418 ft | 220 kts | 247° |
| 2026-04-15 11:20 | -6.23523 | 106.95082 | 967 ft | 224 kts | 237° |
| 2026-04-15 11:21 | -6.24268 | 106.93772 | 375 ft | 207 kts | 243° |
| 2026-04-15 11:21 | -6.24824 | 106.92629 | 253 ft | 153 kts | 230° |
| 2026-04-15 11:21 | -6.25233 | 106.91816 | 281 ft | 118 kts | 234° |
| 2026-04-15 11:21 | -6.25658 | 106.91105 | 428 ft | 121 kts | 233° |
| 2026-04-15 11:22 | -6.26042 | 106.90431 | 153 ft | 110 kts | 237° |
| 2026-04-15 11:22 | -6.26342 | 106.89796 | 101 ft | 89 kts | 242° |
| 2026-04-15 11:22 | -6.26575 | 106.89272 | 100 ft | 86 kts | 249° |
| 2026-04-15 11:22 | -6.26887 | 106.88655 | 99 ft | 94 kts | 244° |
| 2026-04-15 11:23 | -6.27067 | 106.88224 | 98 ft | 39 kts | 248° |
| 2026-04-15 11:23 | -6.27146 | 106.88068 | 100 ft | 0 kts | 244° |
| 2026-04-15 11:23 | -6.27174 | 106.88004 | 100 ft | 15 kts | 246° |
| 2026-04-15 11:23 | -6.27202 | 106.87919 | 101 ft | 1 kts | 296° |
| 2026-04-15 11:24 | -6.27184 | 106.87918 | 100 ft | 3 kts | 19° |
| 2026-04-15 11:24 | -6.27174 | 106.87942 | 100 ft | 4 kts | 73° |
| 2026-04-15 11:24 | -6.27186 | 106.87970 | 99 ft | 5 kts | 141° |
| 2026-04-15 11:24 | -6.27222 | 106.87996 | 101 ft | 9 kts | 132° |
| 2026-04-15 11:25 | -6.27228 | 106.88057 | 99 ft | 9 kts | 77° |
| 2026-04-15 11:25 | -6.27202 | 106.88123 | 98 ft | 13 kts | 72° |
| 2026-04-15 11:25 | -6.27157 | 106.88232 | 98 ft | 18 kts | 66° |